createdAt,value
2018-07-25T00:00:51.885Z,38.10
2018-07-25T00:02:55.358Z,38.50
2018-07-25T00:04:57.963Z,38.40
2018-07-25T00:07:00.554Z,38.50
2018-07-25T00:09:03.278Z,38.40
2018-07-25T00:11:05.983Z,38.30
2018-07-25T00:13:09.448Z,38.30
2018-07-25T00:15:12.057Z,38.30
2018-07-25T00:17:14.804Z,38.20
2018-07-25T00:19:18.898Z,38.40
2018-07-25T00:21:21.532Z,38.30
2018-07-25T00:23:24.125Z,38.30
2018-07-25T00:25:26.763Z,38.30
2018-07-25T00:27:30.229Z,38.30
2018-07-25T00:29:32.839Z,38.20
2018-07-25T00:31:35.444Z,38.30
2018-07-25T00:33:38.031Z,38.40
2018-07-25T00:35:40.658Z,38.60
2018-07-25T00:37:43.250Z,38.70
2018-07-25T00:39:45.841Z,38.80
2018-07-25T00:41:48.467Z,39.10
2018-07-25T00:43:51.818Z,39.50
2018-07-25T00:45:54.515Z,39.40
2018-07-25T00:47:57.191Z,39.50
2018-07-25T00:49:59.801Z,39.70
2018-07-25T00:52:02.390Z,39.60
2018-07-25T00:54:04.985Z,39.70
2018-07-25T00:56:07.683Z,39.80
2018-07-25T00:58:10.366Z,39.80
2018-07-25T01:00:12.968Z,39.90
2018-07-25T01:02:16.326Z,39.90
2018-07-25T01:04:19.009Z,39.80
2018-07-25T01:06:21.617Z,39.80
2018-07-25T01:08:24.204Z,39.90
2018-07-25T01:10:26.837Z,39.90
2018-07-25T01:12:29.418Z,40.60
2018-07-25T01:14:32.781Z,40.10
2018-07-25T01:16:35.406Z,40.10
2018-07-25T01:18:37.995Z,40.00
2018-07-25T01:20:40.723Z,40.10
2018-07-25T01:22:43.318Z,40.20
2018-07-25T01:24:46.701Z,40.20
2018-07-25T01:26:50.084Z,40.30
2018-07-25T01:28:52.758Z,40.30
2018-07-25T01:30:55.370Z,40.20
2018-07-25T01:32:57.953Z,40.20
2018-07-25T01:35:00.537Z,40.30
2018-07-25T01:37:03.167Z,40.50
2018-07-25T01:39:06.516Z,40.70
2018-07-25T01:41:09.134Z,40.60
2018-07-25T01:43:12.511Z,40.50
2018-07-25T01:45:15.157Z,40.30
2018-07-25T01:47:17.785Z,40.40
2018-07-25T01:49:21.166Z,40.30
2018-07-25T01:51:24.648Z,40.40
2018-07-25T01:53:27.238Z,40.30
2018-07-25T01:55:30.605Z,40.50
2018-07-25T01:57:33.229Z,40.40
2018-07-25T01:59:35.812Z,40.40
2018-07-25T02:01:38.412Z,40.50
2018-07-25T02:03:41.111Z,40.70
2018-07-25T02:05:43.718Z,40.70
2018-07-25T02:07:46.301Z,40.70
2018-07-25T02:09:48.897Z,40.70
2018-07-25T02:11:51.610Z,40.80
2018-07-25T02:13:54.208Z,40.90
2018-07-25T02:15:57.694Z,41.00
2018-07-25T02:18:01.033Z,41.10
2018-07-25T02:20:03.616Z,40.90
2018-07-25T02:22:06.234Z,41.00
2018-07-25T02:24:09.600Z,41.20
2018-07-25T02:26:12.207Z,41.10
2018-07-25T02:28:15.556Z,41.30
2018-07-25T02:30:18.229Z,41.10
2018-07-25T02:32:20.930Z,41.10
2018-07-25T02:34:23.532Z,41.10
2018-07-25T02:36:27.005Z,40.90
2018-07-25T02:38:30.373Z,41.10
2018-07-25T02:40:32.948Z,41.00
2018-07-25T02:42:35.592Z,41.00
2018-07-25T02:44:38.216Z,40.90
2018-07-25T02:46:40.821Z,40.80
2018-07-25T02:48:43.401Z,40.80
2018-07-25T02:50:46.020Z,40.80
2018-07-25T02:52:48.625Z,40.70
2018-07-25T02:54:51.977Z,40.70
2018-07-25T02:56:54.681Z,40.60
2018-07-25T02:58:58.172Z,40.70
2018-07-25T03:01:00.850Z,40.70
2018-07-25T03:03:03.456Z,40.60
2018-07-25T03:05:06.071Z,40.70
2018-07-25T03:07:08.674Z,40.80
2018-07-25T03:09:11.455Z,40.90
2018-07-25T03:11:14.708Z,40.90
2018-07-25T03:13:17.414Z,40.80
2018-07-25T03:15:20.049Z,40.90
2018-07-25T03:17:22.660Z,40.90
2018-07-25T03:19:26.750Z,41.10
2018-07-25T03:21:29.336Z,41.10
2018-07-25T03:23:31.946Z,41.20
2018-07-25T03:25:35.301Z,41.40
2018-07-25T03:27:39.445Z,41.40
2018-07-25T03:29:42.792Z,41.30
2018-07-25T03:31:45.403Z,41.30
2018-07-25T03:33:48.881Z,41.40
2018-07-25T03:35:51.485Z,41.30
2018-07-25T03:37:54.865Z,41.50
2018-07-25T03:39:58.214Z,41.70
2018-07-25T03:42:00.829Z,41.70
2018-07-25T03:44:04.176Z,41.90
2018-07-25T03:46:06.761Z,41.80
2018-07-25T03:48:09.388Z,41.80
2018-07-25T03:50:12.728Z,42.00
2018-07-25T03:52:15.339Z,42.00
2018-07-25T03:54:18.695Z,42.10
2018-07-25T03:56:21.389Z,42.10
2018-07-25T03:58:24.008Z,42.10
2018-07-25T04:00:26.585Z,42.30
2018-07-25T04:02:30.172Z,42.50
2018-07-25T04:04:33.489Z,42.40
2018-07-25T04:06:36.079Z,42.30
2018-07-25T04:08:38.697Z,42.30
2018-07-25T04:10:42.046Z,42.30
2018-07-25T04:12:44.657Z,42.30
2018-07-25T04:14:48.041Z,42.40
2018-07-25T04:16:51.392Z,42.30
2018-07-25T04:18:54.015Z,42.30
2018-07-25T04:20:57.361Z,42.40
2018-07-25T04:22:59.985Z,42.40
2018-07-25T04:25:03.332Z,42.60
2018-07-25T04:27:05.916Z,42.40
2018-07-25T04:29:08.525Z,42.50
2018-07-25T04:31:11.877Z,42.70
2018-07-25T04:33:14.481Z,42.60
2018-07-25T04:35:17.824Z,42.80
2018-07-25T04:37:20.437Z,42.70
2018-07-25T04:39:23.021Z,42.90
2018-07-25T04:41:26.373Z,43.10
2018-07-25T04:43:28.989Z,43.00
2018-07-25T04:45:31.641Z,43.10
2018-07-25T04:47:34.244Z,43.30
2018-07-25T04:49:37.598Z,43.60
2018-07-25T04:51:40.181Z,43.60
2018-07-25T04:53:42.789Z,43.60
2018-07-25T04:55:46.129Z,43.70
2018-07-25T04:57:48.741Z,43.70
2018-07-25T04:59:52.088Z,43.80
2018-07-25T05:01:54.773Z,43.80
2018-07-25T05:03:57.474Z,43.90
2018-07-25T05:06:00.047Z,43.90
2018-07-25T05:08:04.262Z,44.10
2018-07-25T05:10:06.937Z,44.00
2018-07-25T05:12:09.538Z,43.90
2018-07-25T05:14:13.005Z,44.30
2018-07-25T05:16:15.680Z,44.20
2018-07-25T05:18:18.297Z,44.60
2018-07-25T05:20:20.885Z,44.80
2018-07-25T05:22:23.501Z,44.80
2018-07-25T05:24:26.125Z,44.70
2018-07-25T05:26:28.712Z,44.60
2018-07-25T05:28:31.325Z,44.70
2018-07-25T05:30:33.933Z,44.70
2018-07-25T05:32:37.400Z,45.60
2018-07-25T05:34:40.014Z,44.90
2018-07-25T05:36:42.596Z,44.80
2018-07-25T05:38:45.217Z,44.70
2018-07-25T05:40:47.800Z,44.60
2018-07-25T05:42:51.160Z,44.50
2018-07-25T05:44:53.777Z,44.40
2018-07-25T05:46:57.250Z,44.60
2018-07-25T05:49:01.372Z,44.60
2018-07-25T05:51:04.725Z,44.50
2018-07-25T05:53:07.429Z,44.50
2018-07-25T05:55:10.784Z,44.70
2018-07-25T05:57:13.498Z,44.30
2018-07-25T05:59:16.177Z,44.20
2018-07-25T06:01:18.761Z,44.10
2018-07-25T06:03:22.358Z,44.10
2018-07-25T06:05:25.636Z,44.00
2018-07-25T06:07:29.716Z,43.90
2018-07-25T06:09:32.348Z,43.80
2018-07-25T06:11:34.932Z,43.80
2018-07-25T06:13:39.154Z,43.80
2018-07-25T06:15:41.748Z,43.70
2018-07-25T06:17:44.327Z,43.70
2018-07-25T06:19:46.937Z,43.60
2018-07-25T06:21:50.289Z,43.30
2018-07-25T06:23:52.907Z,43.30
2018-07-25T06:25:56.342Z,43.10
2018-07-25T06:27:59.646Z,42.90
2018-07-25T06:30:02.352Z,42.90
2018-07-25T06:32:06.436Z,43.10
2018-07-25T06:34:09.065Z,43.10
2018-07-25T06:36:11.649Z,43.10
2018-07-25T06:38:14.244Z,42.90
2018-07-25T06:40:16.960Z,42.80
2018-07-25T06:42:19.635Z,42.90
2018-07-25T06:44:22.232Z,42.80
2018-07-25T06:46:25.583Z,42.70
2018-07-25T06:48:28.166Z,42.70
2018-07-25T06:50:30.773Z,42.60
2018-07-25T06:52:33.361Z,42.60
2018-07-25T06:54:35.962Z,42.50
2018-07-25T06:56:38.616Z,42.50
2018-07-25T06:58:41.237Z,42.40
2018-07-25T07:00:43.830Z,42.40
2018-07-25T07:02:47.174Z,42.50
2018-07-25T07:04:49.888Z,42.30
2018-07-25T07:06:52.577Z,42.30
2018-07-25T07:08:56.059Z,42.50
2018-07-25T07:10:59.451Z,42.50
2018-07-25T07:13:02.127Z,42.40
2018-07-25T07:15:06.370Z,42.50
2018-07-25T07:17:09.729Z,42.50
2018-07-25T07:19:12.336Z,42.40
2018-07-25T07:21:14.917Z,42.40
2018-07-25T07:23:17.505Z,42.60
2018-07-25T07:25:20.132Z,42.90
2018-07-25T07:27:22.807Z,42.80
2018-07-25T07:29:25.418Z,43.00
2018-07-25T07:31:28.099Z,43.00
2018-07-25T07:33:30.611Z,42.80
2018-07-25T07:35:33.225Z,42.80
2018-07-25T07:37:36.642Z,43.00
2018-07-25T07:39:40.088Z,43.00
2018-07-25T07:41:43.637Z,42.90
2018-07-25T07:43:46.217Z,42.90
2018-07-25T07:45:48.828Z,42.80
2018-07-25T07:47:51.507Z,42.90
2018-07-25T07:49:54.119Z,43.00
2018-07-25T07:51:56.706Z,43.00
2018-07-25T07:53:59.317Z,42.70
2018-07-25T07:56:01.968Z,42.60
2018-07-25T07:58:04.556Z,42.60
2018-07-25T08:00:07.166Z,42.70
2018-07-25T08:02:10.523Z,42.70
2018-07-25T08:04:13.119Z,42.70
2018-07-25T08:06:15.716Z,42.50
2018-07-25T08:08:19.188Z,42.30
2018-07-25T08:10:21.812Z,42.30
2018-07-25T08:12:24.400Z,42.30
2018-07-25T08:14:27.014Z,42.30
2018-07-25T08:16:29.686Z,42.30
2018-07-25T08:18:32.292Z,42.30
2018-07-25T08:20:34.905Z,42.20
2018-07-25T08:22:37.522Z,42.40
2018-07-25T08:24:41.004Z,42.30
2018-07-25T08:26:43.592Z,42.20
2018-07-25T08:28:46.950Z,42.00
2018-07-25T08:30:49.557Z,41.90
2018-07-25T08:32:52.921Z,41.90
2018-07-25T08:34:55.581Z,41.80
2018-07-25T08:36:58.133Z,41.80
2018-07-25T08:39:00.716Z,41.70
2018-07-25T08:41:03.434Z,41.80
2018-07-25T08:43:06.011Z,41.80
2018-07-25T08:45:09.503Z,42.50
2018-07-25T08:47:12.568Z,41.70
2018-07-25T08:49:15.204Z,41.60
2018-07-25T08:51:17.940Z,41.60
2018-07-25T08:53:20.518Z,41.60
2018-07-25T08:55:23.905Z,41.70
2018-07-25T08:57:26.585Z,41.30
2018-07-25T08:59:29.258Z,41.10
2018-07-25T09:01:31.878Z,41.00
2018-07-25T09:03:34.477Z,40.90
2018-07-25T09:05:37.093Z,40.90
2018-07-25T09:07:41.350Z,41.10
2018-07-25T09:09:44.701Z,41.10
2018-07-25T09:11:49.166Z,41.10
2018-07-25T09:13:51.744Z,41.00
2018-07-25T09:15:54.373Z,41.00
2018-07-25T09:17:57.761Z,40.80
2018-07-25T09:20:01.238Z,40.30
2018-07-25T09:22:03.914Z,40.80
2018-07-25T09:24:06.502Z,40.70
2018-07-25T09:26:09.883Z,40.50
2018-07-25T09:28:12.488Z,40.30
2018-07-25T09:30:15.142Z,40.20
2018-07-25T09:32:18.496Z,40.80
2018-07-25T09:34:21.260Z,40.10
2018-07-25T09:36:24.608Z,40.10
2018-07-25T09:38:27.282Z,40.10
2018-07-25T09:40:29.913Z,40.10
2018-07-25T09:42:32.617Z,40.10
2018-07-25T09:44:35.975Z,40.70
2018-07-25T09:46:38.754Z,40.00
2018-07-25T09:48:42.069Z,39.20
2018-07-25T09:50:45.574Z,39.60
2018-07-25T09:52:48.946Z,38.90
2018-07-25T09:54:51.539Z,38.80
2018-07-25T09:56:55.034Z,38.20
2018-07-25T09:58:58.448Z,38.30
2018-07-25T10:01:01.088Z,37.80
2018-07-25T10:03:03.648Z,37.70
2018-07-25T10:05:06.262Z,37.40
2018-07-25T10:07:09.712Z,36.50
2018-07-25T10:09:13.035Z,36.20
2018-07-25T10:11:16.441Z,35.90
2018-07-25T10:13:19.829Z,35.20
2018-07-25T10:15:23.941Z,34.80
2018-07-25T10:17:26.549Z,34.70
2018-07-25T10:19:29.381Z,34.20
2018-07-25T10:21:32.820Z,34.30
2018-07-25T10:23:35.434Z,33.80
2018-07-25T10:25:38.079Z,33.50
2018-07-25T10:27:40.665Z,33.10
2018-07-25T10:29:43.276Z,32.80
2018-07-25T10:31:45.881Z,32.80
2018-07-25T10:33:49.311Z,32.90
2018-07-25T10:35:51.929Z,32.80
2018-07-25T10:37:55.280Z,32.60
2018-07-25T10:39:57.986Z,32.50
2018-07-25T10:42:00.597Z,32.10
2018-07-25T10:44:03.190Z,31.70
2018-07-25T10:46:05.834Z,31.30
2018-07-25T10:48:08.427Z,31.10
2018-07-25T10:50:11.017Z,31.20
2018-07-25T10:52:13.734Z,31.60
2018-07-25T10:54:17.105Z,31.60
2018-07-25T10:56:19.738Z,31.60
2018-07-25T10:58:22.353Z,31.20
2018-07-25T11:00:25.287Z,31.00
2018-07-25T11:02:27.932Z,31.10
2018-07-25T11:04:31.286Z,31.80
2018-07-25T11:06:33.909Z,31.10
2018-07-25T11:08:37.291Z,30.20
2018-07-25T11:10:39.873Z,30.10
2018-07-25T11:12:43.264Z,30.00
2018-07-25T11:14:46.624Z,29.60
2018-07-25T11:16:49.245Z,29.60
2018-07-25T11:18:52.681Z,29.50
2018-07-25T11:20:55.408Z,29.50
2018-07-25T11:22:58.808Z,29.70
2018-07-25T11:25:01.414Z,29.70
2018-07-25T11:27:04.026Z,30.00
2018-07-25T11:29:07.397Z,30.70
2018-07-25T11:31:10.009Z,30.70
2018-07-25T11:33:12.703Z,31.10
2018-07-25T11:35:15.300Z,31.10
2018-07-25T11:37:17.908Z,30.90
2018-07-25T11:39:20.518Z,30.80
2018-07-25T11:41:23.869Z,30.80
2018-07-25T11:43:26.508Z,30.70
2018-07-25T11:45:29.091Z,30.90
2018-07-25T11:47:31.696Z,30.70
2018-07-25T11:49:34.390Z,30.50
2018-07-25T11:51:37.067Z,30.50
2018-07-25T11:53:39.668Z,30.60
2018-07-25T11:55:43.184Z,30.20
2018-07-25T11:57:46.535Z,30.20
2018-07-25T11:59:49.881Z,30.20
2018-07-25T12:01:52.486Z,30.00
2018-07-25T12:03:55.104Z,29.90
2018-07-25T12:05:57.681Z,30.00
2018-07-25T12:08:00.419Z,30.40
2018-07-25T12:10:03.776Z,31.20
2018-07-25T12:12:06.565Z,31.10
2018-07-25T12:14:09.168Z,31.30
2018-07-25T12:16:12.544Z,31.40
2018-07-25T12:18:15.180Z,31.40
2018-07-25T12:20:17.776Z,31.00
2018-07-25T12:22:20.402Z,30.90
2018-07-25T12:24:23.032Z,31.10
2018-07-25T12:26:25.761Z,30.80
2018-07-25T12:28:29.105Z,30.50
2018-07-25T12:30:32.117Z,30.40
2018-07-25T12:32:35.496Z,30.30
2018-07-25T12:34:38.860Z,30.30
2018-07-25T12:36:41.535Z,30.20
2018-07-25T12:38:44.113Z,30.00
2018-07-25T12:40:46.713Z,29.80
2018-07-25T12:42:50.336Z,29.30
2018-07-25T12:44:53.685Z,29.00
2018-07-25T12:46:56.272Z,28.90
2018-07-25T12:49:00.016Z,29.60
2018-07-25T12:51:02.613Z,30.00
2018-07-25T12:53:05.192Z,29.60
2018-07-25T12:55:07.901Z,29.30
2018-07-25T12:57:12.168Z,28.90
2018-07-25T12:59:15.588Z,28.90
2018-07-25T13:01:18.220Z,28.80
2018-07-25T13:03:20.828Z,29.20
2018-07-25T13:05:23.536Z,28.80
2018-07-25T13:07:26.937Z,28.00
2018-07-25T13:09:30.422Z,28.10
2018-07-25T13:11:33.017Z,28.00
2018-07-25T13:13:35.671Z,28.00
2018-07-25T13:15:39.024Z,27.80
2018-07-25T13:17:41.620Z,27.60
2018-07-25T13:19:44.389Z,27.60
2018-07-25T13:21:47.092Z,27.60
2018-07-25T13:23:50.465Z,27.80
2018-07-25T13:25:53.088Z,27.70
2018-07-25T13:27:55.690Z,27.50
2018-07-25T13:29:58.289Z,27.50
2018-07-25T13:32:00.943Z,27.40
2018-07-25T13:34:03.570Z,27.50
2018-07-25T13:36:06.229Z,27.70
2018-07-25T13:38:08.816Z,28.20
2018-07-25T13:40:12.300Z,28.50
2018-07-25T13:42:16.396Z,28.80
2018-07-25T13:44:19.275Z,28.70
2018-07-25T13:46:21.973Z,28.70
2018-07-25T13:48:25.225Z,28.90
2018-07-25T13:50:27.932Z,28.90
2018-07-25T13:52:31.323Z,29.50
2018-07-25T13:54:34.691Z,29.00
2018-07-25T13:58:41.312Z,29.10
2018-07-25T14:00:44.673Z,28.70
2018-07-25T14:02:47.591Z,28.70
2018-07-25T14:04:51.066Z,28.40
2018-07-25T14:06:54.435Z,28.50
2018-07-25T14:08:57.060Z,28.40
2018-07-25T14:10:59.664Z,28.20
2018-07-25T14:13:02.290Z,27.80
2018-07-25T14:15:05.744Z,27.80
2018-07-25T14:17:08.451Z,27.70
2018-07-25T14:19:11.837Z,27.70
2018-07-25T14:21:15.227Z,27.30
2018-07-25T14:23:18.603Z,27.60
2018-07-25T14:25:21.213Z,27.10
2018-07-25T14:27:25.021Z,27.80
2018-07-25T14:29:28.410Z,27.20
2018-07-25T14:31:30.984Z,27.10
2018-07-25T14:33:34.056Z,27.10
2018-07-25T14:35:37.415Z,27.40
2018-07-25T14:37:41.559Z,26.90
2018-07-25T14:39:45.435Z,27.20
2018-07-25T14:41:48.723Z,27.40
2018-07-25T14:43:51.330Z,27.30
2018-07-25T14:45:54.737Z,27.40
2018-07-25T14:47:57.350Z,27.30
2018-07-25T14:49:59.950Z,27.30
2018-07-25T14:52:04.100Z,26.90
2018-07-25T14:54:07.486Z,26.80
2018-07-25T14:56:10.862Z,26.70
2018-07-25T14:58:14.280Z,26.40
2018-07-25T15:00:17.624Z,26.30
2018-07-25T15:02:20.262Z,26.30
2018-07-25T15:04:23.901Z,26.90
2018-07-25T15:06:26.496Z,26.60
2018-07-25T15:08:29.225Z,26.50
2018-07-25T15:10:31.950Z,26.50
2018-07-25T15:12:34.547Z,26.40
2018-07-25T15:14:37.151Z,26.00
2018-07-25T15:16:39.792Z,26.40
2018-07-25T15:18:42.398Z,26.30
2018-07-25T15:20:44.989Z,26.30
2018-07-25T15:22:47.624Z,26.40
2018-07-25T15:24:50.241Z,26.40
2018-07-25T15:26:52.843Z,26.20
2018-07-25T15:28:55.621Z,26.40
2018-07-25T15:30:58.993Z,26.10
2018-07-25T15:33:01.691Z,26.00
2018-07-25T15:35:05.119Z,26.10
2018-07-25T15:37:07.721Z,26.00
2018-07-25T15:39:10.309Z,25.90
2018-07-25T15:41:12.953Z,25.80
2018-07-25T15:43:15.580Z,25.80
2018-07-25T15:45:18.948Z,25.80
2018-07-25T15:47:21.896Z,25.70
2018-07-25T15:49:24.533Z,25.70
2018-07-25T15:51:27.896Z,25.70
2018-07-25T15:53:30.651Z,25.60
2018-07-25T15:55:33.262Z,25.50
2018-07-25T15:57:35.860Z,25.50
2018-07-25T15:59:39.320Z,25.70
2018-07-25T16:01:41.891Z,25.60
2018-07-25T16:03:44.490Z,26.10
2018-07-25T16:05:47.985Z,26.70
2018-07-25T16:07:52.099Z,26.70
2018-07-25T16:09:55.480Z,27.00
2018-07-25T16:11:58.101Z,26.90
2018-07-25T16:14:00.689Z,27.10
2018-07-25T16:16:03.387Z,27.50
2018-07-25T16:18:06.025Z,27.80
2018-07-25T16:20:08.624Z,28.20
2018-07-25T16:22:11.236Z,28.10
2018-07-25T16:24:14.737Z,27.90
2018-07-25T16:26:18.100Z,27.60
2018-07-25T16:28:20.724Z,27.60
2018-07-25T16:30:23.350Z,27.70
2018-07-25T16:32:25.946Z,27.70
2018-07-25T16:34:29.325Z,27.90
2018-07-25T16:36:31.969Z,27.80
2018-07-25T16:38:34.654Z,27.80
2018-07-25T16:40:37.268Z,27.90
2018-07-25T16:42:40.760Z,28.30
2018-07-25T16:44:44.121Z,28.50
2018-07-25T16:46:48.259Z,28.60
2018-07-25T16:48:51.657Z,28.80
2018-07-25T16:50:55.147Z,29.00
2018-07-25T16:52:58.520Z,29.10
2018-07-25T16:55:02.656Z,29.10
2018-07-25T16:57:06.028Z,29.10
2018-07-25T16:59:08.628Z,29.10
2018-07-25T17:01:12.201Z,29.10
2018-07-25T17:03:15.572Z,29.10
2018-07-25T17:05:18.180Z,29.00
2018-07-25T17:07:21.579Z,29.10
2018-07-25T17:09:24.937Z,29.60
2018-07-25T17:11:27.646Z,29.00
2018-07-25T17:13:31.134Z,28.90
2018-07-25T17:15:34.530Z,28.60
2018-07-25T17:17:37.217Z,28.50
2018-07-25T17:19:40.644Z,28.40
2018-07-25T17:21:43.233Z,28.40
2018-07-25T17:23:45.948Z,28.40
2018-07-25T17:25:49.359Z,28.20
2018-07-25T17:27:51.976Z,28.20
2018-07-25T17:29:55.106Z,28.20
2018-07-25T17:31:59.854Z,28.00
2018-07-25T17:34:02.465Z,27.90
2018-07-25T17:36:05.071Z,28.20
2018-07-25T17:38:08.575Z,30.50
2018-07-25T17:40:11.937Z,32.60
2018-07-25T17:42:14.575Z,32.60
2018-07-25T17:44:17.234Z,31.60
2018-07-25T17:46:19.832Z,32.40
2018-07-25T17:48:22.446Z,33.30
2018-07-25T17:50:25.100Z,33.50
2018-07-25T17:52:27.752Z,33.90
2018-07-25T17:54:30.355Z,34.10
2018-07-25T17:56:32.996Z,34.90
2018-07-25T17:58:35.584Z,35.60
2018-07-25T18:00:38.173Z,36.10
2018-07-25T18:02:40.797Z,36.00
2018-07-25T18:04:44.277Z,32.80
2018-07-25T18:06:47.652Z,31.90
2018-07-25T18:08:50.288Z,31.80
2018-07-25T18:10:52.872Z,32.90
2018-07-25T18:12:55.495Z,32.30
2018-07-25T18:14:58.902Z,31.70
2018-07-25T18:17:01.511Z,31.50
2018-07-25T18:19:04.109Z,31.40
2018-07-25T18:21:07.004Z,31.40
2018-07-25T18:23:09.690Z,32.50
2018-07-25T18:25:13.053Z,33.30
2018-07-25T18:27:15.681Z,33.10
2018-07-25T18:29:18.313Z,32.50
2018-07-25T18:31:20.926Z,32.30
2018-07-25T18:33:23.553Z,33.40
2018-07-25T18:35:26.166Z,34.80
2018-07-25T18:37:28.841Z,34.60
2018-07-25T18:39:31.473Z,34.70
2018-07-25T18:41:34.127Z,34.10
2018-07-25T18:43:37.473Z,33.00
2018-07-25T18:45:40.888Z,33.10
2018-07-25T18:47:43.483Z,33.00
2018-07-25T18:49:46.085Z,32.90
2018-07-25T18:51:48.721Z,33.90
2018-07-25T18:53:51.313Z,34.90
2018-07-25T18:55:53.911Z,35.50
2018-07-25T18:57:56.576Z,35.70
2018-07-25T18:59:59.185Z,35.80
2018-07-25T19:02:01.771Z,35.70
2018-07-25T19:04:05.255Z,36.50
2018-07-25T19:06:07.841Z,36.50
2018-07-25T19:08:11.941Z,37.30
2018-07-25T19:10:15.023Z,37.20
2018-07-25T19:12:17.618Z,37.40
2018-07-25T19:14:20.977Z,37.80
2018-07-25T19:16:23.969Z,37.70
2018-07-25T19:18:26.650Z,37.70
2018-07-25T19:20:29.220Z,37.90
2018-07-25T19:22:31.864Z,38.20
2018-07-25T19:24:34.482Z,38.30
2018-07-25T19:26:37.829Z,38.40
2018-07-25T19:28:40.513Z,38.40
2018-07-25T19:30:43.111Z,38.00
2018-07-25T19:32:45.789Z,37.90
2018-07-25T19:34:48.397Z,37.20
2018-07-25T19:36:50.979Z,37.10
2018-07-25T19:38:53.570Z,37.50
2018-07-25T19:40:56.190Z,37.70
2018-07-25T19:42:59.545Z,37.00
2018-07-25T19:45:02.120Z,36.90
2018-07-25T19:47:04.800Z,36.80
2018-07-25T19:49:07.399Z,37.00
2018-07-25T19:51:10.000Z,37.00
2018-07-25T19:53:13.377Z,37.40
2018-07-25T19:55:16.759Z,37.70
2018-07-25T19:57:19.354Z,37.60
2018-07-25T19:59:22.121Z,37.80
2018-07-25T20:01:25.475Z,38.30
2018-07-25T20:03:28.053Z,38.30
2018-07-25T20:05:30.673Z,38.40
2018-07-25T20:07:34.023Z,38.40
2018-07-25T20:09:36.600Z,38.30
2018-07-25T20:11:39.212Z,38.20
2018-07-25T20:13:41.885Z,37.60
2018-07-25T20:16:02.032Z,36.20
2018-07-25T20:18:04.720Z,36.10
2018-07-25T20:20:07.262Z,35.40
2018-07-25T20:22:09.849Z,35.00
2018-07-25T20:24:12.498Z,34.70
2018-07-25T20:26:15.446Z,34.10
2018-07-25T20:28:18.792Z,33.70
2018-07-25T20:30:21.425Z,33.60
2018-07-25T20:32:24.773Z,33.80
2018-07-25T20:34:27.359Z,33.70
2018-07-25T20:36:30.000Z,33.70
2018-07-25T20:38:32.580Z,33.60
2018-07-25T20:40:35.185Z,33.40
2018-07-25T20:42:38.066Z,33.20
2018-07-25T20:44:40.641Z,32.90
2018-07-25T20:46:43.417Z,32.60
2018-07-25T20:48:46.039Z,32.40
2018-07-25T20:50:48.706Z,32.30
2018-07-25T20:52:51.293Z,32.10
2018-07-25T20:54:53.910Z,32.10
2018-07-25T20:56:56.593Z,32.00
2018-07-25T20:58:59.270Z,31.90
2018-07-25T21:01:01.879Z,32.00
2018-07-25T21:03:04.462Z,32.10
2018-07-25T21:05:07.045Z,32.10
2018-07-25T21:07:09.777Z,32.20
2018-07-25T21:09:13.124Z,32.40
2018-07-25T21:11:15.708Z,32.40
2018-07-25T21:13:18.329Z,32.60
2018-07-25T21:15:21.677Z,32.80
2018-07-25T21:17:24.272Z,32.80
2018-07-25T21:19:26.926Z,33.00
2018-07-25T21:21:29.504Z,33.00
2018-07-25T21:23:32.127Z,33.10
2018-07-25T21:25:34.875Z,33.30
2018-07-25T21:27:37.548Z,33.30
2018-07-25T21:29:40.201Z,33.40
2018-07-25T21:31:42.899Z,33.50
2018-07-25T21:33:45.485Z,33.70
2018-07-25T21:35:48.836Z,34.00
2018-07-25T21:37:51.541Z,33.90
2018-07-25T21:39:55.634Z,34.30
2018-07-25T21:41:58.318Z,34.20
2018-07-25T21:44:01.112Z,34.40
2018-07-25T21:46:03.694Z,34.40
2018-07-25T21:48:07.045Z,34.70
2018-07-25T21:50:09.858Z,34.60
2018-07-25T21:52:13.228Z,35.50
2018-07-25T21:54:15.916Z,34.70
2018-07-25T21:56:18.734Z,34.80
2018-07-25T21:58:22.061Z,35.40
2018-07-25T22:00:24.648Z,34.80
2018-07-25T22:02:27.298Z,35.10
2018-07-25T22:04:29.881Z,35.20
2018-07-25T22:06:32.482Z,35.30
2018-07-25T22:08:35.572Z,35.40
2018-07-25T22:10:38.246Z,35.40
2018-07-25T22:12:40.922Z,35.50
2018-07-25T22:14:45.050Z,35.50
2018-07-25T22:16:48.400Z,35.50
2018-07-25T22:18:51.103Z,35.40
2018-07-25T22:20:53.723Z,35.50
2018-07-25T22:22:56.304Z,35.50
2018-07-25T22:24:58.909Z,35.40
2018-07-25T22:27:01.525Z,35.50
2018-07-25T22:29:04.973Z,35.50
2018-07-25T22:31:07.567Z,35.40
2018-07-25T22:33:10.169Z,35.50
2018-07-25T22:35:12.755Z,35.40
2018-07-25T22:37:15.346Z,35.50
2018-07-25T22:39:17.977Z,35.50
2018-07-25T22:41:21.329Z,35.70
2018-07-25T22:43:24.155Z,35.60
2018-07-25T22:45:27.541Z,35.70
2018-07-25T22:47:30.904Z,35.80
2018-07-25T22:49:33.484Z,35.70
2018-07-25T22:51:36.117Z,35.80
2018-07-25T22:53:38.704Z,36.00
2018-07-25T22:55:41.284Z,36.00
2018-07-25T22:57:44.309Z,36.10
2018-07-25T22:59:47.665Z,36.20
2018-07-25T23:01:50.364Z,36.20
2018-07-25T23:03:52.977Z,36.30
2018-07-25T23:05:55.585Z,36.40
2018-07-25T23:07:58.168Z,36.40
2018-07-25T23:10:00.787Z,36.50
2018-07-25T23:12:04.258Z,36.50
2018-07-25T23:14:07.036Z,36.50
2018-07-25T23:16:09.642Z,36.50
2018-07-25T23:18:12.224Z,36.60
2018-07-25T23:20:14.811Z,36.60
2018-07-25T23:22:17.531Z,36.60
2018-07-25T23:24:20.109Z,36.60
2018-07-25T23:26:22.786Z,36.60
2018-07-25T23:28:25.409Z,36.70
2018-07-25T23:30:27.993Z,36.70
2018-07-25T23:32:30.708Z,36.80
2018-07-25T23:34:33.345Z,36.90
2018-07-25T23:36:35.932Z,36.90
2018-07-25T23:38:38.506Z,36.90
2018-07-25T23:40:41.128Z,37.00
2018-07-25T23:42:44.473Z,37.20
2018-07-25T23:44:47.067Z,37.10
2018-07-25T23:46:49.672Z,37.10
2018-07-25T23:48:52.260Z,37.30
2018-07-25T23:50:54.845Z,37.30
2018-07-25T23:52:57.489Z,37.40
2018-07-25T23:55:00.834Z,37.50
2018-07-25T23:57:03.422Z,37.40
2018-07-25T23:59:06.051Z,37.50
